createdAt,value
2023-04-27T00:01:42.137Z,4.40
2023-04-27T00:04:09.461Z,1.60
2023-04-27T00:06:36.849Z,1.75
2023-04-27T00:09:04.628Z,1.77
2023-04-27T00:11:31.840Z,1.85
2023-04-27T00:13:58.912Z,1.95
2023-04-27T00:16:26.534Z,1.98
2023-04-27T00:18:54.055Z,1.95
2023-04-27T00:21:21.145Z,2.00
2023-04-27T00:23:48.115Z,1.63
2023-04-27T00:26:15.097Z,1.80
2023-04-27T00:28:44.420Z,1.95
2023-04-27T00:31:11.358Z,1.63
2023-04-27T00:33:38.501Z,1.63
2023-04-27T00:36:06.105Z,2.22
2023-04-27T00:38:33.090Z,1.63
2023-04-27T00:41:04.637Z,2.00
2023-04-27T00:43:32.648Z,3.05
2023-04-27T00:46:00.955Z,2.35
2023-04-27T00:48:28.616Z,2.20
2023-04-27T00:50:55.837Z,2.55
2023-04-27T00:53:22.932Z,2.00
2023-04-27T00:55:49.938Z,2.30
2023-04-27T00:58:16.970Z,2.40
2023-04-27T01:00:44.155Z,2.17
2023-04-27T01:03:11.556Z,1.67
2023-04-27T01:05:39.248Z,1.88
2023-04-27T01:08:08.160Z,2.42
2023-04-27T01:10:35.845Z,1.60
2023-04-27T01:13:03.158Z,2.05
2023-04-27T01:15:31.340Z,2.45
2023-04-27T01:18:02.701Z,2.50
2023-04-27T01:20:32.869Z,1.98
2023-04-27T01:23:00.357Z,2.20
2023-04-27T01:25:27.580Z,2.13
2023-04-27T01:27:54.802Z,1.92
2023-04-27T01:30:24.696Z,2.33
2023-04-27T01:32:52.237Z,2.25
2023-04-27T01:35:20.010Z,2.33
2023-04-27T01:37:46.955Z,1.95
2023-04-27T01:40:14.414Z,2.20
2023-04-27T01:42:42.108Z,2.40
2023-04-27T01:45:10.493Z,1.88
2023-04-27T01:47:37.958Z,2.20
2023-04-27T01:50:06.272Z,2.58
2023-04-27T01:52:33.261Z,2.92
2023-04-27T01:55:00.241Z,3.35
2023-04-27T01:57:27.648Z,2.75
2023-04-27T01:59:55.781Z,2.50
2023-04-27T02:02:23.168Z,2.97
2023-04-27T02:04:50.657Z,3.05
2023-04-27T02:07:17.798Z,2.92
2023-04-27T02:09:45.219Z,3.13
2023-04-27T02:12:14.381Z,3.33
2023-04-27T02:14:41.397Z,3.22
2023-04-27T02:17:08.504Z,3.40
2023-04-27T02:19:36.393Z,2.88
2023-04-27T02:22:04.106Z,3.17
2023-04-27T02:24:31.181Z,2.95
2023-04-27T02:26:58.205Z,2.83
2023-04-27T02:29:30.288Z,2.70
2023-04-27T02:31:57.782Z,3.15
2023-04-27T02:34:24.859Z,2.75
2023-04-27T02:36:51.970Z,3.50
2023-04-27T02:39:18.900Z,3.33
2023-04-27T02:41:45.919Z,3.72
2023-04-27T02:44:13.464Z,2.95
2023-04-27T02:46:40.524Z,3.25
2023-04-27T02:49:07.502Z,4.07
2023-04-27T02:51:34.589Z,3.28
2023-04-27T02:54:01.715Z,3.17
2023-04-27T02:56:28.932Z,3.00
2023-04-27T02:58:56.362Z,3.35
2023-04-27T03:01:23.614Z,3.33
2023-04-27T03:03:50.823Z,3.65
2023-04-27T03:06:17.902Z,3.50
2023-04-27T03:08:44.880Z,3.78
2023-04-27T03:11:12.643Z,3.50
2023-04-27T03:13:42.273Z,3.30
2023-04-27T03:16:12.278Z,2.80
2023-04-27T03:18:39.920Z,4.07
2023-04-27T03:21:11.960Z,3.53
2023-04-27T03:23:39.918Z,3.10
2023-04-27T03:26:11.362Z,3.22
2023-04-27T03:28:38.819Z,3.38
2023-04-27T03:31:12.227Z,3.35
2023-04-27T03:33:40.593Z,3.17
2023-04-27T03:36:08.891Z,3.22
2023-04-27T03:38:36.277Z,3.03
2023-04-27T03:41:04.139Z,3.28
2023-04-27T03:43:31.147Z,2.90
2023-04-27T03:45:58.182Z,2.78
2023-04-27T03:48:25.691Z,2.35
2023-04-27T03:50:55.280Z,2.60
2023-04-27T03:53:22.205Z,2.50
2023-04-27T03:55:51.029Z,2.55
2023-04-27T03:58:18.222Z,2.60
2023-04-27T04:01:04.193Z,3.65
2023-04-27T04:03:31.345Z,3.22
2023-04-27T04:05:58.774Z,2.75
2023-04-27T04:08:26.018Z,2.95
2023-04-27T04:10:52.963Z,3.08
2023-04-27T04:13:20.007Z,3.50
2023-04-27T04:15:47.005Z,3.33
2023-04-27T04:18:13.943Z,3.42
2023-04-27T04:20:40.976Z,3.38
2023-04-27T04:23:08.408Z,3.85
2023-04-27T04:25:35.454Z,3.65
2023-04-27T04:28:02.399Z,3.70
2023-04-27T04:30:29.457Z,3.58
2023-04-27T04:32:56.525Z,3.83
2023-04-27T04:35:23.585Z,4.38
2023-04-27T04:37:50.595Z,3.38
2023-04-27T04:40:17.536Z,3.33
2023-04-27T04:42:44.483Z,3.67
2023-04-27T04:45:11.820Z,3.63
2023-04-27T04:47:39.720Z,3.17
2023-04-27T04:50:09.375Z,3.80
2023-04-27T04:52:37.314Z,3.70
2023-04-27T04:55:04.991Z,4.00
2023-04-27T04:57:32.209Z,4.15
2023-04-27T04:59:59.235Z,4.28
2023-04-27T05:02:26.530Z,3.28
2023-04-27T05:04:53.685Z,3.58
2023-04-27T05:07:24.773Z,3.50
2023-04-27T05:09:52.911Z,2.80
2023-04-27T05:12:23.058Z,3.22
2023-04-27T05:14:52.736Z,3.45
2023-04-27T05:17:20.093Z,2.92
2023-04-27T05:19:47.778Z,3.30
2023-04-27T05:22:14.901Z,3.95
2023-04-27T05:24:42.170Z,4.22
2023-04-27T05:27:09.311Z,2.78
2023-04-27T05:29:36.543Z,2.70
2023-04-27T05:32:03.840Z,3.00
2023-04-27T05:34:31.119Z,2.50
2023-04-27T05:36:58.029Z,4.00
2023-04-27T05:39:24.996Z,2.88
2023-04-27T05:41:53.950Z,2.92
2023-04-27T05:44:20.885Z,3.00
2023-04-27T05:46:47.836Z,3.20
2023-04-27T05:49:15.035Z,3.03
2023-04-27T05:51:42.447Z,2.90
2023-04-27T05:54:09.860Z,3.42
2023-04-27T05:56:37.910Z,3.38
2023-04-27T05:59:05.085Z,3.40
2023-04-27T06:01:32.089Z,3.60
2023-04-27T06:04:01.543Z,3.72
2023-04-27T06:06:33.003Z,4.68
2023-04-27T06:09:00.190Z,5.45
2023-04-27T06:11:27.177Z,5.35
2023-04-27T06:13:54.176Z,6.05
2023-04-27T06:16:21.475Z,6.05
2023-04-27T06:18:50.780Z,4.88
2023-04-27T06:21:18.242Z,4.50
2023-04-27T06:23:45.528Z,4.68
2023-04-27T06:26:12.472Z,4.55
2023-04-27T06:28:39.406Z,4.60
2023-04-27T06:31:06.831Z,4.35
2023-04-27T06:33:33.934Z,4.75
2023-04-27T06:36:02.365Z,5.18
2023-04-27T06:38:29.477Z,4.20
2023-04-27T06:40:57.012Z,4.07
2023-04-27T06:43:23.993Z,3.78
2023-04-27T06:45:51.140Z,3.45
2023-04-27T06:48:18.200Z,3.25
2023-04-27T06:50:45.226Z,3.30
2023-04-27T06:53:12.255Z,4.30
2023-04-27T06:55:42.384Z,2.80
2023-04-27T06:58:10.393Z,2.30
2023-04-27T07:00:37.367Z,2.53
2023-04-27T07:03:04.495Z,2.75
2023-04-27T07:05:31.524Z,2.53
2023-04-27T07:07:59.811Z,2.60
2023-04-27T07:10:28.490Z,2.38
2023-04-27T07:12:55.570Z,2.85
2023-04-27T07:15:22.810Z,2.95
2023-04-27T07:17:51.739Z,3.13
2023-04-27T07:20:18.700Z,2.90
2023-04-27T07:22:45.831Z,2.70
2023-04-27T07:25:13.122Z,2.80
2023-04-27T07:27:41.447Z,3.30
2023-04-27T07:30:10.082Z,4.55
2023-04-27T07:32:40.657Z,3.72
2023-04-27T07:35:11.723Z,1.90
2023-04-27T07:37:38.811Z,1.65
2023-04-27T07:40:14.420Z,1.70
2023-04-27T07:42:42.096Z,1.90
2023-04-27T07:45:10.100Z,1.63
2023-04-27T07:47:37.877Z,1.58
2023-04-27T07:50:09.008Z,1.52
2023-04-27T07:52:37.200Z,2.22
2023-04-27T07:55:04.735Z,1.77
2023-04-27T07:57:31.757Z,1.80
2023-04-27T07:59:58.680Z,1.60
2023-04-27T08:02:31.580Z,2.13
2023-04-27T08:04:59.149Z,1.90
2023-04-27T08:07:27.228Z,2.72
2023-04-27T08:09:55.633Z,1.60
2023-04-27T08:12:22.737Z,2.25
2023-04-27T08:14:49.811Z,1.58
2023-04-27T08:17:18.549Z,1.15
2023-04-27T08:19:45.704Z,1.98
2023-04-27T08:22:12.905Z,1.42
2023-04-27T08:24:40.042Z,2.00
2023-04-27T08:27:07.693Z,1.35
2023-04-27T08:29:35.095Z,1.73
2023-04-27T08:32:04.589Z,2.85
2023-04-27T08:34:32.033Z,1.83
2023-04-27T08:36:59.106Z,1.70
2023-04-27T08:39:26.467Z,1.05
2023-04-27T08:41:53.584Z,2.50
2023-04-27T08:44:20.656Z,1.55
2023-04-27T08:46:47.726Z,1.30
2023-04-27T08:49:16.726Z,1.50
2023-04-27T08:51:44.370Z,1.95
2023-04-27T08:54:11.436Z,1.20
2023-04-27T08:56:39.228Z,1.88
2023-04-27T08:59:17.880Z,1.33
2023-04-27T09:01:49.802Z,1.10
2023-04-27T09:04:18.109Z,1.20
2023-04-27T09:06:46.274Z,1.70
2023-04-27T09:09:23.642Z,1.45
2023-04-27T09:11:51.380Z,1.50
2023-04-27T09:14:23.725Z,1.65
2023-04-27T09:16:58.659Z,1.40
2023-04-27T09:19:27.783Z,1.48
2023-04-27T09:22:11.029Z,1.25
2023-04-27T09:24:38.231Z,2.25
2023-04-27T09:27:08.831Z,1.85
2023-04-27T09:29:37.548Z,1.75
2023-04-27T09:32:21.040Z,1.42
2023-04-27T09:34:48.461Z,1.92
2023-04-27T09:37:16.550Z,2.15
2023-04-27T09:39:44.503Z,1.38
2023-04-27T09:42:13.231Z,1.80
2023-04-27T09:44:40.200Z,1.15
2023-04-27T09:47:08.138Z,2.25
2023-04-27T09:49:35.982Z,1.60
2023-04-27T09:52:02.972Z,1.80
2023-04-27T09:54:33.845Z,2.25
2023-04-27T09:57:33.581Z,2.72
2023-04-27T10:00:10.879Z,1.30
2023-04-27T10:03:22.880Z,1.38
2023-04-27T10:06:01.277Z,1.50
2023-04-27T10:08:29.861Z,1.63
2023-04-27T10:10:57.030Z,2.10
2023-04-27T10:13:26.361Z,1.63
2023-04-27T10:15:54.378Z,1.38
2023-04-27T10:18:31.388Z,1.85
2023-04-27T10:21:10.968Z,1.80
2023-04-27T10:23:50.695Z,1.60
2023-04-27T10:26:27.984Z,2.20
2023-04-27T10:29:08.703Z,1.73
2023-04-27T10:31:36.437Z,1.45
2023-04-27T10:34:11.884Z,1.85
2023-04-27T10:36:40.908Z,1.65
2023-04-27T10:39:27.607Z,1.90
2023-04-27T10:42:03.556Z,2.00
2023-04-27T10:44:32.839Z,1.77
2023-04-27T10:47:12.119Z,1.95
2023-04-27T10:49:39.444Z,1.90
2023-04-27T10:52:06.942Z,1.98
2023-04-27T10:54:35.283Z,1.70
2023-04-27T10:57:08.179Z,2.00
2023-04-27T10:59:48.419Z,1.60
2023-04-27T11:02:15.984Z,1.98
2023-04-27T11:04:43.574Z,1.90
2023-04-27T11:07:11.767Z,1.92
2023-04-27T11:09:43.219Z,2.38
2023-04-27T11:12:14.006Z,1.63
2023-04-27T11:14:41.357Z,1.88
2023-04-27T11:17:09.206Z,2.35
2023-04-27T11:19:50.528Z,2.03
2023-04-27T11:22:17.807Z,1.80
2023-04-27T11:24:50.723Z,1.90
2023-04-27T11:27:18.930Z,1.38
2023-04-27T11:29:46.577Z,2.85
2023-04-27T11:32:24.110Z,1.95
2023-04-27T11:34:53.965Z,2.30
2023-04-27T11:37:28.373Z,1.73
2023-04-27T11:40:00.422Z,2.22
2023-04-27T11:42:29.114Z,2.15
2023-04-27T11:45:07.980Z,2.33
2023-04-27T11:47:36.113Z,2.30
2023-04-27T11:50:07.895Z,2.72
2023-04-27T11:52:38.223Z,1.98
2023-04-27T11:55:07.035Z,1.98
2023-04-27T11:57:36.095Z,2.20
2023-04-27T12:00:12.184Z,2.47
2023-04-27T12:02:43.698Z,2.50
2023-04-27T12:05:13.135Z,2.67
2023-04-27T12:07:41.413Z,2.40
2023-04-27T12:10:11.385Z,2.65
2023-04-27T12:12:38.767Z,2.85
2023-04-27T12:15:08.432Z,2.00
2023-04-27T12:17:35.945Z,2.38
2023-04-27T12:20:03.795Z,2.17
2023-04-27T12:22:30.851Z,2.63
2023-04-27T12:24:57.947Z,2.13
2023-04-27T12:27:26.603Z,1.95
2023-04-27T12:29:55.858Z,1.75
2023-04-27T12:32:23.632Z,1.98
2023-04-27T12:34:50.922Z,2.63
2023-04-27T12:37:17.937Z,2.47
2023-04-27T12:39:45.120Z,2.92
2023-04-27T12:42:12.168Z,3.05
2023-04-27T12:44:39.318Z,1.70
2023-04-27T12:47:06.756Z,2.10
2023-04-27T12:49:34.069Z,2.67
2023-04-27T12:52:01.191Z,1.73
2023-04-27T12:54:28.241Z,1.95
2023-04-27T12:56:55.514Z,2.22
2023-04-27T12:59:22.656Z,2.53
2023-04-27T13:01:49.817Z,2.15
2023-04-27T13:04:23.797Z,2.50
2023-04-27T13:06:51.127Z,2.38
2023-04-27T13:09:21.534Z,1.88
2023-04-27T13:11:48.693Z,2.50
2023-04-27T13:14:16.653Z,2.28
2023-04-27T13:16:44.287Z,2.30
2023-04-27T13:19:11.442Z,2.50
2023-04-27T13:21:38.780Z,2.67
2023-04-27T13:24:06.663Z,2.50
2023-04-27T13:26:34.187Z,3.08
2023-04-27T13:29:06.972Z,2.50
2023-04-27T13:31:34.252Z,2.42
2023-04-27T13:34:02.032Z,3.17
2023-04-27T13:36:29.096Z,2.38
2023-04-27T13:38:56.499Z,2.42
2023-04-27T13:41:23.839Z,2.85
2023-04-27T13:43:51.133Z,2.42
2023-04-27T13:46:18.220Z,2.53
2023-04-27T13:48:45.475Z,2.50
2023-04-27T13:51:12.735Z,2.67
2023-04-27T13:53:39.803Z,2.47
2023-04-27T13:56:06.951Z,2.20
2023-04-27T13:58:34.081Z,2.20
2023-04-27T14:01:01.790Z,3.00
2023-04-27T14:03:29.952Z,3.00
2023-04-27T14:05:57.310Z,2.80
2023-04-27T14:08:24.581Z,3.08
2023-04-27T14:10:51.888Z,3.47
2023-04-27T14:13:20.177Z,2.38
2023-04-27T14:15:47.259Z,3.30
2023-04-27T14:18:14.471Z,2.92
2023-04-27T14:20:42.328Z,2.30
2023-04-27T14:23:11.216Z,2.17
2023-04-27T14:25:39.189Z,2.22
2023-04-27T14:28:10.740Z,2.63
2023-04-27T14:30:37.924Z,1.80
2023-04-27T14:33:05.162Z,1.90
2023-04-27T14:35:37.376Z,3.45
2023-04-27T14:38:04.740Z,2.28
2023-04-27T14:40:32.434Z,1.90
2023-04-27T14:43:00.031Z,2.45
2023-04-27T14:45:33.589Z,3.20
2023-04-27T14:48:07.630Z,2.25
2023-04-27T14:50:34.722Z,2.35
2023-04-27T14:53:01.852Z,2.63
2023-04-27T14:55:29.531Z,2.17
2023-04-27T14:57:56.798Z,2.53
2023-04-27T15:00:24.244Z,2.03
2023-04-27T15:02:51.522Z,2.70
2023-04-27T15:05:18.721Z,2.22
2023-04-27T15:07:49.214Z,2.15
2023-04-27T15:10:16.296Z,2.47
2023-04-27T15:12:43.620Z,2.67
2023-04-27T15:15:12.936Z,2.38
2023-04-27T15:17:40.086Z,2.53
2023-04-27T15:20:08.082Z,2.65
2023-04-27T15:22:35.345Z,2.47
2023-04-27T15:25:03.013Z,2.22
2023-04-27T15:27:30.753Z,3.72
2023-04-27T15:29:58.699Z,3.28
2023-04-27T15:32:30.094Z,2.28
2023-04-27T15:35:00.954Z,2.65
2023-04-27T15:37:29.064Z,1.95
2023-04-27T15:39:56.892Z,3.15
2023-04-27T15:42:24.664Z,2.47
2023-04-27T15:44:52.234Z,2.53
2023-04-27T15:47:19.678Z,2.53
2023-04-27T15:49:56.991Z,3.00
2023-04-27T15:52:26.446Z,3.10
2023-04-27T15:54:53.441Z,2.90
2023-04-27T15:57:20.523Z,2.88
2023-04-27T15:59:47.465Z,2.40
2023-04-27T16:02:14.441Z,3.05
2023-04-27T16:04:41.453Z,3.30
2023-04-27T16:07:08.708Z,3.00
2023-04-27T16:09:35.817Z,2.97
2023-04-27T16:12:03.997Z,2.70
2023-04-27T16:14:31.346Z,2.55
2023-04-27T16:17:01.919Z,3.22
2023-04-27T16:19:29.203Z,2.47
2023-04-27T16:21:56.755Z,3.40
2023-04-27T16:24:26.126Z,2.85
2023-04-27T16:26:53.225Z,2.83
2023-04-27T16:29:20.530Z,3.13
2023-04-27T16:31:50.444Z,3.13
2023-04-27T16:34:17.453Z,2.92
2023-04-27T16:36:44.552Z,2.90
2023-04-27T16:39:11.929Z,2.92
2023-04-27T16:41:38.942Z,3.15
2023-04-27T16:44:06.035Z,2.53
2023-04-27T16:46:33.174Z,3.60
2023-04-27T16:49:00.201Z,3.50
2023-04-27T16:51:28.828Z,3.20
2023-04-27T16:53:56.263Z,3.03
2023-04-27T16:56:32.694Z,2.63
2023-04-27T16:59:00.036Z,2.63
2023-04-27T17:01:29.792Z,3.40
2023-04-27T17:03:58.472Z,2.83
2023-04-27T17:06:26.733Z,2.75
2023-04-27T17:08:56.962Z,2.90
2023-04-27T17:11:24.305Z,2.75
2023-04-27T17:13:51.244Z,3.08
2023-04-27T17:16:19.461Z,2.70
2023-04-27T17:18:47.115Z,3.15
2023-04-27T17:21:14.372Z,3.17
2023-04-27T17:23:41.686Z,2.95
2023-04-27T17:26:10.632Z,3.10
2023-04-27T17:28:37.611Z,2.67
2023-04-27T17:31:04.589Z,2.53
2023-04-27T17:33:31.605Z,3.03
2023-04-27T17:35:58.683Z,2.65
2023-04-27T17:38:26.902Z,2.78
2023-04-27T17:40:54.041Z,2.83
2023-04-27T17:43:20.966Z,3.00
2023-04-27T17:45:47.886Z,2.55
2023-04-27T17:48:14.858Z,2.83
2023-04-27T17:50:41.856Z,2.55
2023-04-27T17:53:08.806Z,2.97
2023-04-27T17:55:36.258Z,3.10
2023-04-27T17:58:06.492Z,2.90
2023-04-27T18:00:34.050Z,2.70
2023-04-27T18:03:01.226Z,2.63
2023-04-27T18:05:28.583Z,2.90
2023-04-27T18:07:55.833Z,2.55
2023-04-27T18:10:23.064Z,2.65
2023-04-27T18:12:50.145Z,2.50
2023-04-27T18:15:17.403Z,3.05
2023-04-27T18:17:45.482Z,2.40
2023-04-27T18:20:12.778Z,2.83
2023-04-27T18:22:40.358Z,3.30
2023-04-27T18:25:11.385Z,2.70
2023-04-27T18:27:38.525Z,2.85
2023-04-27T18:30:08.419Z,2.75
2023-04-27T18:32:35.761Z,2.58
2023-04-27T18:35:03.663Z,2.90
2023-04-27T18:37:30.785Z,4.15
2023-04-27T18:39:57.684Z,2.20
2023-04-27T18:42:24.668Z,2.35
2023-04-27T18:45:00.507Z,2.65
2023-04-27T18:47:27.897Z,2.60
2023-04-27T18:49:54.882Z,2.92
2023-04-27T18:52:22.063Z,2.40
2023-04-27T18:54:49.027Z,2.65
2023-04-27T18:57:16.056Z,2.67
2023-04-27T18:59:43.169Z,2.80
2023-04-27T19:02:10.119Z,2.83
2023-04-27T19:04:37.267Z,2.65
2023-04-27T19:07:04.294Z,3.00
2023-04-27T19:09:31.338Z,2.75
2023-04-27T19:12:02.871Z,2.90
2023-04-27T19:14:31.829Z,2.92
2023-04-27T19:16:58.930Z,3.33
2023-04-27T19:19:26.696Z,2.40
2023-04-27T19:21:54.348Z,2.72
2023-04-27T19:24:21.366Z,3.60
2023-04-27T19:26:48.541Z,2.80
2023-04-27T19:29:16.112Z,3.05
2023-04-27T19:31:43.654Z,3.20
2023-04-27T19:34:10.899Z,2.92
2023-04-27T19:36:37.825Z,3.00
2023-04-27T19:39:04.807Z,3.05
2023-04-27T19:41:31.768Z,3.63
2023-04-27T19:43:58.680Z,2.65
2023-04-27T19:46:26.620Z,3.05
2023-04-27T19:48:54.342Z,3.08
2023-04-27T19:51:21.410Z,3.00
2023-04-27T19:53:48.426Z,2.92
2023-04-27T19:56:15.559Z,3.60
2023-04-27T19:58:42.493Z,2.75
2023-04-27T20:01:09.964Z,2.58
2023-04-27T20:03:39.847Z,2.35
2023-04-27T20:06:07.120Z,3.47
2023-04-27T20:08:34.203Z,2.85
2023-04-27T20:11:01.135Z,2.50
2023-04-27T20:13:28.119Z,3.50
2023-04-27T20:15:55.146Z,2.70
2023-04-27T20:18:22.260Z,3.67
2023-04-27T20:20:50.234Z,3.03
2023-04-27T20:23:17.167Z,3.40
2023-04-27T20:25:44.081Z,2.92
2023-04-27T20:28:11.001Z,3.47
2023-04-27T20:30:37.905Z,3.55
2023-04-27T20:33:04.997Z,3.72
2023-04-27T20:35:31.907Z,4.70
2023-04-27T20:37:58.872Z,3.50
2023-04-27T20:40:25.823Z,3.63
2023-04-27T20:42:52.783Z,3.70
2023-04-27T20:45:19.844Z,3.58
2023-04-27T20:47:46.928Z,3.53
2023-04-27T20:50:13.957Z,3.30
2023-04-27T20:52:41.092Z,3.58
2023-04-27T20:55:08.392Z,4.10
2023-04-27T20:57:35.608Z,2.92
2023-04-27T21:00:03.791Z,3.13
2023-04-27T21:02:30.738Z,3.75
2023-04-27T21:04:57.852Z,3.90
2023-04-27T21:07:24.980Z,5.20
2023-04-27T21:09:51.925Z,4.18
2023-04-27T21:12:18.894Z,4.03
2023-04-27T21:14:45.901Z,4.00
2023-04-27T21:17:15.201Z,4.18
2023-04-27T21:19:42.410Z,4.00
2023-04-27T21:22:09.470Z,4.22
2023-04-27T21:24:36.567Z,4.05
2023-04-27T21:27:03.910Z,4.05
2023-04-27T21:29:31.028Z,4.38
2023-04-27T21:31:57.941Z,3.95
2023-04-27T21:34:24.926Z,4.30
2023-04-27T21:36:51.899Z,4.43
2023-04-27T21:39:18.807Z,4.95
2023-04-27T21:41:45.962Z,4.70
2023-04-27T21:44:13.076Z,4.70
2023-04-27T21:46:40.184Z,4.18
2023-04-27T21:49:07.401Z,4.53
2023-04-27T21:51:34.839Z,4.78
2023-04-27T21:54:02.161Z,4.55
2023-04-27T21:56:29.131Z,4.35
2023-04-27T21:58:56.139Z,4.18
2023-04-27T22:01:23.554Z,4.68
2023-04-27T22:03:50.834Z,4.85
2023-04-27T22:06:17.847Z,4.68
2023-04-27T22:08:44.817Z,5.63
2023-04-27T22:11:12.031Z,5.05
2023-04-27T22:13:38.995Z,5.07
2023-04-27T22:16:06.256Z,4.57
2023-04-27T22:18:33.389Z,4.60
2023-04-27T22:21:00.336Z,5.10
2023-04-27T22:23:27.338Z,4.50
2023-04-27T22:25:54.311Z,5.50
2023-04-27T22:28:21.408Z,4.40
2023-04-27T22:30:48.358Z,4.38
2023-04-27T22:33:16.624Z,5.40
2023-04-27T22:35:44.034Z,4.35
2023-04-27T22:38:11.281Z,3.90
2023-04-27T22:40:38.274Z,3.63
2023-04-27T22:43:05.342Z,4.70
2023-04-27T22:45:32.272Z,4.20
2023-04-27T22:47:59.334Z,3.80
2023-04-27T22:50:26.842Z,4.38
2023-04-27T22:52:53.807Z,4.30
2023-04-27T22:55:21.193Z,4.13
2023-04-27T22:57:49.908Z,3.70
2023-04-27T23:00:17.439Z,3.92
2023-04-27T23:02:44.556Z,4.95
2023-04-27T23:05:12.438Z,4.22
2023-04-27T23:07:41.326Z,4.53
2023-04-27T23:10:08.986Z,3.88
2023-04-27T23:12:37.784Z,4.50
2023-04-27T23:15:05.274Z,4.05
2023-04-27T23:17:32.542Z,3.83
2023-04-27T23:20:01.653Z,4.72
2023-04-27T23:22:28.846Z,3.60
2023-04-27T23:24:56.308Z,3.70
2023-04-27T23:27:24.819Z,4.43
2023-04-27T23:29:52.578Z,4.03
2023-04-27T23:32:20.235Z,3.78
2023-04-27T23:34:47.462Z,3.88
2023-04-27T23:37:14.397Z,3.72
2023-04-27T23:39:41.382Z,4.10
2023-04-27T23:42:08.417Z,3.65
2023-04-27T23:44:35.390Z,3.75
2023-04-27T23:47:02.318Z,4.13
2023-04-27T23:49:29.261Z,4.22
2023-04-27T23:51:56.264Z,3.95
2023-04-27T23:54:23.443Z,3.92
2023-04-27T23:56:51.595Z,3.35
2023-04-27T23:59:18.852Z,4.50
